createdAt,value
2019-01-03T00:00:24.382Z,96636.52
2019-01-03T00:03:26.509Z,96638.34
2019-01-03T00:06:38.827Z,96639.41
2019-01-03T00:09:47.990Z,96640.38
2019-01-03T00:12:40.029Z,96637.05
2019-01-03T00:15:29.228Z,96647.45
2019-01-03T00:18:46.811Z,96638.02
2019-01-03T00:21:33.601Z,96646.38
2019-01-03T00:24:27.310Z,96650.22
2019-01-03T00:27:40.274Z,96650.90
2019-01-03T00:30:40.538Z,96672.16
2019-01-03T00:33:31.469Z,96668.89
2019-01-03T00:36:28.547Z,96664.28
2019-01-03T00:39:14.559Z,96658.81
2019-01-03T00:42:06.474Z,96662.66
2019-01-03T00:44:55.987Z,96669.84
2019-01-03T00:47:58.048Z,96675.30
2019-01-03T00:50:54.832Z,96669.29
2019-01-03T00:54:03.189Z,96674.89
2019-01-03T00:57:09.349Z,96681.59
2019-01-03T00:59:58.712Z,96676.36
2019-01-03T01:02:49.490Z,96686.80
2019-01-03T01:05:42.646Z,96695.17
2019-01-03T01:08:31.228Z,96699.29
2019-01-03T01:11:34.936Z,96712.56
2019-01-03T01:14:38.169Z,96719.52
2019-01-03T01:17:28.887Z,96714.97
2019-01-03T01:20:37.188Z,96703.14
2019-01-03T01:23:47.350Z,96705.56
2019-01-03T01:26:54.019Z,96705.36
2019-01-03T01:29:57.268Z,96720.03
2019-01-03T01:33:05.727Z,96720.10
2019-01-03T01:35:50.195Z,96722.27
2019-01-03T01:39:13.219Z,96720.23
2019-01-03T01:42:02.652Z,96710.13
2019-01-03T01:44:53.368Z,96706.92
2019-01-03T01:47:54.189Z,96722.04
2019-01-03T01:50:42.644Z,96716.00
2019-01-03T01:53:45.778Z,96714.91
2019-01-03T01:56:52.979Z,96705.07
2019-01-03T01:59:49.954Z,96700.30
2019-01-03T02:02:53.480Z,96701.48
2019-01-03T02:06:02.945Z,96701.36
2019-01-03T02:08:58.430Z,96701.68
2019-01-03T02:11:48.440Z,96706.31
2019-01-03T02:14:38.184Z,96705.08
2019-01-03T02:17:38.540Z,96704.00
2019-01-03T02:20:29.725Z,96704.55
2019-01-03T02:23:20.697Z,96705.66
2019-01-03T02:26:18.849Z,96704.34
2019-01-03T02:29:02.807Z,96696.13
2019-01-03T02:32:10.496Z,96701.85
2019-01-03T02:35:14.704Z,96720.56
2019-01-03T02:38:18.007Z,96722.94
2019-01-03T02:41:26.559Z,96714.29
2019-01-03T02:44:15.960Z,96715.73
2019-01-03T02:47:22.124Z,96715.50
2019-01-03T02:50:34.841Z,96712.56
2019-01-03T02:53:31.491Z,96715.91
2019-01-03T02:56:31.274Z,96714.78
2019-01-03T02:59:46.303Z,96688.13
2019-01-03T03:02:47.865Z,96704.58
2019-01-03T03:05:49.773Z,96716.45
2019-01-03T03:08:39.616Z,96694.78
2019-01-03T03:11:34.586Z,96698.52
2019-01-03T03:14:34.944Z,96704.36
2019-01-03T03:17:32.317Z,96704.66
2019-01-03T03:20:35.497Z,96699.80
2019-01-03T03:23:34.217Z,96700.02
2019-01-03T03:26:37.398Z,96700.75
2019-01-03T03:29:52.764Z,96699.81
2019-01-03T03:32:46.561Z,96706.35
2019-01-03T03:35:41.276Z,96708.17
2019-01-03T03:38:47.255Z,96710.23
2019-01-03T03:41:55.521Z,96698.09
2019-01-03T03:44:46.796Z,96706.61
2019-01-03T03:47:37.597Z,96705.17
2019-01-03T03:50:20.708Z,96704.52
2019-01-03T03:53:37.097Z,96710.02
2019-01-03T03:56:40.258Z,96708.91
2019-01-03T03:59:46.594Z,96704.32
2019-01-03T04:02:55.372Z,96700.13
2019-01-03T04:06:01.765Z,96709.33
2019-01-03T04:09:08.217Z,96721.20
2019-01-03T04:12:06.690Z,96722.13
2019-01-03T04:14:58.138Z,96710.36
2019-01-03T04:17:48.965Z,96706.20
2019-01-03T04:20:45.809Z,96713.35
2019-01-03T04:23:42.823Z,96715.95
2019-01-03T04:26:37.168Z,96704.18
2019-01-03T04:29:29.204Z,96695.56
2019-01-03T04:32:33.797Z,96694.02
2019-01-03T04:35:25.665Z,96698.08
2019-01-03T04:38:23.283Z,96693.32
2019-01-03T04:41:42.440Z,96694.61
2019-01-03T04:44:42.919Z,96701.09
2019-01-03T04:47:33.352Z,96696.70
2019-01-03T04:50:26.057Z,96695.19
2019-01-03T04:53:15.641Z,96680.70
2019-01-03T04:56:07.144Z,96673.46
2019-01-03T04:59:10.487Z,96684.92
2019-01-03T05:02:19.578Z,96682.21
2019-01-03T05:05:08.981Z,96690.94
2019-01-03T05:08:18.576Z,96685.17
2019-01-03T05:11:18.783Z,96700.93
2019-01-03T05:14:34.605Z,96702.52
2019-01-03T05:17:29.897Z,96697.77
2019-01-03T05:20:34.366Z,96698.33
2019-01-03T05:23:27.498Z,96701.19
2019-01-03T05:26:12.618Z,96703.59
2019-01-03T05:29:16.936Z,96705.33
2019-01-03T05:32:07.163Z,96710.09
2019-01-03T05:34:58.018Z,96714.55
2019-01-03T05:37:48.856Z,96708.52
2019-01-03T05:40:38.979Z,96713.39
2019-01-03T05:43:45.120Z,96716.47
2019-01-03T05:46:41.319Z,96726.33
2019-01-03T05:49:30.998Z,96740.14
2019-01-03T05:52:37.297Z,96730.28
2019-01-03T05:55:34.410Z,96733.73
2019-01-03T05:58:44.420Z,96734.44
2019-01-03T06:01:38.234Z,96733.30
2019-01-03T06:05:02.101Z,96733.85
2019-01-03T06:08:01.997Z,96741.30
2019-01-03T06:10:59.757Z,96746.93
2019-01-03T06:14:20.859Z,96759.89
2019-01-03T06:17:33.506Z,96760.17
2019-01-03T06:20:27.572Z,96758.59
2019-01-03T06:26:22.008Z,96772.51
2019-01-03T06:29:15.580Z,96776.66
2019-01-03T06:32:12.176Z,96775.49
2019-01-03T06:35:22.357Z,96785.38
2019-01-03T06:38:19.349Z,96780.11
2019-01-03T06:41:22.597Z,96779.52
2019-01-03T06:44:21.677Z,96787.42
2019-01-03T06:47:11.238Z,96782.17
2019-01-03T06:50:01.771Z,96785.69
2019-01-03T06:52:51.777Z,96783.05
2019-01-03T06:55:42.501Z,96786.46
2019-01-03T06:58:58.084Z,96795.17
2019-01-03T07:01:41.998Z,96802.83
2019-01-03T07:04:31.405Z,96796.33
2019-01-03T07:07:38.586Z,96801.38
2019-01-03T07:10:28.844Z,96808.13
2019-01-03T07:13:30.616Z,96813.58
2019-01-03T07:16:21.684Z,96821.73
2019-01-03T07:19:15.258Z,96822.02
2019-01-03T07:22:04.905Z,96818.00
2019-01-03T07:25:04.654Z,96826.61
2019-01-03T07:27:55.862Z,96835.79
2019-01-03T07:30:50.452Z,96839.16
2019-01-03T07:33:49.883Z,96838.87
2019-01-03T07:36:50.348Z,96833.09
2019-01-03T07:39:46.913Z,96845.30
2019-01-03T07:42:37.709Z,96840.84
2019-01-03T07:45:34.298Z,96851.11
2019-01-03T07:48:28.854Z,96852.23
2019-01-03T07:51:18.085Z,96848.82
2019-01-03T07:54:10.468Z,96855.88
2019-01-03T07:57:00.013Z,96857.63
2019-01-03T08:00:03.809Z,96861.48
2019-01-03T08:02:53.325Z,96869.38
2019-01-03T08:05:56.410Z,96872.84
2019-01-03T08:08:50.235Z,96864.84
2019-01-03T08:11:53.284Z,96858.64
2019-01-03T08:14:50.177Z,96855.91
2019-01-03T08:17:38.632Z,96842.12
2019-01-03T08:20:28.024Z,96851.13
2019-01-03T08:23:16.856Z,96861.66
2019-01-03T08:26:07.604Z,96852.63
2019-01-03T08:29:23.864Z,96855.30
2019-01-03T08:32:13.618Z,96863.84
2019-01-03T08:35:28.087Z,96867.54
2019-01-03T08:38:18.836Z,96871.81
2019-01-03T08:41:27.537Z,96860.36
2019-01-03T08:44:20.978Z,96857.70
2019-01-03T08:47:28.156Z,96851.91
2019-01-03T08:50:22.011Z,96853.53
2019-01-03T08:53:12.677Z,96849.78
2019-01-03T08:56:18.331Z,96849.12
2019-01-03T08:59:27.484Z,96843.89
2019-01-03T09:02:28.790Z,96843.86
2019-01-03T09:05:30.969Z,96851.19
2019-01-03T09:08:30.337Z,96858.20
2019-01-03T09:11:21.056Z,96861.74
2019-01-03T09:14:20.686Z,96865.41
2019-01-03T09:17:11.695Z,96873.11
2019-01-03T09:20:05.215Z,96884.53
2019-01-03T09:22:54.504Z,96875.44
2019-01-03T09:25:44.995Z,96874.95
2019-01-03T09:28:34.726Z,96879.22
2019-01-03T09:31:42.499Z,96880.70
2019-01-03T09:34:32.082Z,96881.64
2019-01-03T09:37:31.752Z,96879.32
2019-01-03T09:40:21.465Z,96877.44
2019-01-03T09:43:27.319Z,96872.69
2019-01-03T09:45:59.704Z,96870.80
2019-01-03T09:48:32.314Z,96857.93
2019-01-03T09:51:04.461Z,96855.50
2019-01-03T09:53:55.457Z,96865.47
2019-01-03T09:56:27.493Z,96865.11
2019-01-03T09:58:59.597Z,96868.91
2019-01-03T10:01:34.332Z,96858.74
2019-01-03T10:04:06.383Z,96857.95
2019-01-03T10:06:38.496Z,96850.56
2019-01-03T10:09:10.629Z,96853.00
2019-01-03T10:11:45.333Z,96851.33
2019-01-03T10:14:17.428Z,96855.98
2019-01-03T10:16:50.097Z,96851.92
2019-01-03T10:19:22.501Z,96844.42
2019-01-03T10:21:56.304Z,96843.91
2019-01-03T10:24:28.381Z,96840.34
2019-01-03T10:27:00.384Z,96838.48
2019-01-03T10:29:32.865Z,96840.13
2019-01-03T10:32:07.365Z,96839.84
2019-01-03T10:34:39.485Z,96833.97
2019-01-03T10:37:11.602Z,96830.85
2019-01-03T10:39:43.704Z,96824.34
2019-01-03T10:42:24.598Z,96825.91
2019-01-03T10:44:56.536Z,96828.61
2019-01-03T10:47:47.547Z,96823.70
2019-01-03T10:50:21.177Z,96824.11
2019-01-03T10:52:53.062Z,96819.56
2019-01-03T10:55:25.107Z,96822.06
2019-01-03T10:57:57.177Z,96820.57
2019-01-03T11:00:29.276Z,96817.60
2019-01-03T11:03:20.405Z,96826.38
2019-01-03T11:05:55.387Z,96822.91
2019-01-03T11:08:27.318Z,96828.98
2019-01-03T11:11:02.244Z,96827.07
2019-01-03T11:13:32.926Z,96827.56
2019-01-03T11:16:04.897Z,96816.36
2019-01-03T11:18:48.775Z,96806.44
2019-01-03T11:21:21.884Z,96802.34
2019-01-03T11:24:02.834Z,96801.70
2019-01-03T11:26:35.117Z,96808.61
2019-01-03T11:29:26.105Z,96812.58
2019-01-03T11:32:00.767Z,96808.59
2019-01-03T11:34:32.710Z,96798.67
2019-01-03T11:37:04.667Z,96801.16
2019-01-03T11:39:37.078Z,96802.45
2019-01-03T11:42:28.020Z,96799.98
2019-01-03T11:45:01.709Z,96794.52
2019-01-03T11:47:33.805Z,96796.42
2019-01-03T11:50:06.916Z,96793.75
2019-01-03T11:52:38.918Z,96793.27
2019-01-03T11:55:11.578Z,96789.10
2019-01-03T11:58:02.524Z,96782.89
2019-01-03T12:00:34.423Z,96785.10
2019-01-03T12:03:06.396Z,96782.16
2019-01-03T12:05:38.379Z,96773.36
2019-01-03T12:08:10.506Z,96768.92
2019-01-03T12:10:42.436Z,96768.30
2019-01-03T12:13:14.557Z,96770.91
2019-01-03T12:15:46.556Z,96765.94
2019-01-03T12:18:18.617Z,96766.58
2019-01-03T12:20:52.198Z,96766.61
2019-01-03T12:23:43.139Z,96761.44
2019-01-03T12:26:24.166Z,96748.52
2019-01-03T12:28:56.294Z,96751.81
2019-01-03T12:31:28.304Z,96743.27
2019-01-03T12:34:00.333Z,96747.70
2019-01-03T12:36:47.557Z,96740.61
2019-01-03T12:39:19.678Z,96733.29
2019-01-03T12:41:51.979Z,96733.59
2019-01-03T12:44:43.050Z,96727.07
2019-01-03T12:47:22.996Z,96721.23
2019-01-03T12:49:55.190Z,96722.04
2019-01-03T12:52:27.187Z,96720.91
2019-01-03T12:54:59.240Z,96732.97
2019-01-03T12:57:31.336Z,96733.70
2019-01-03T13:00:03.431Z,96731.70
2019-01-03T13:02:50.370Z,96733.58
2019-01-03T13:05:22.399Z,96732.25
2019-01-03T13:07:54.339Z,96735.22
2019-01-03T13:10:26.337Z,96736.85
2019-01-03T13:12:58.387Z,96740.92
2019-01-03T13:15:30.278Z,96738.33
2019-01-03T13:18:02.398Z,96735.95
2019-01-03T13:20:44.698Z,96740.33
2019-01-03T13:23:16.716Z,96741.63
2019-01-03T13:25:50.667Z,96737.55
2019-01-03T13:28:22.715Z,96736.92
2019-01-03T13:30:54.774Z,96731.17
2019-01-03T13:33:45.805Z,96729.50
2019-01-03T13:36:30.127Z,96734.40
2019-01-03T13:39:02.099Z,96730.08
2019-01-03T13:41:34.161Z,96725.84
2019-01-03T13:44:25.247Z,96728.22
2019-01-03T13:47:15.585Z,96729.20
2019-01-03T13:49:47.578Z,96729.72
2019-01-03T13:52:19.652Z,96722.32
2019-01-03T13:54:52.456Z,96718.45
2019-01-03T13:57:25.121Z,96717.50
2019-01-03T14:00:01.449Z,96717.03
2019-01-03T14:02:33.514Z,96713.92
2019-01-03T14:05:06.576Z,96716.58
2019-01-03T14:07:38.852Z,96718.16
2019-01-03T14:10:13.185Z,96718.45
2019-01-03T14:12:45.417Z,96710.28
2019-01-03T14:15:17.643Z,96705.39
2019-01-03T14:17:49.716Z,96706.16
2019-01-03T14:20:22.637Z,96702.67
2019-01-03T14:22:54.764Z,96706.34
2019-01-03T14:25:27.821Z,96700.33
2019-01-03T14:28:00.311Z,96703.66
2019-01-03T14:30:32.359Z,96704.42
2019-01-03T14:33:04.497Z,96715.09
2019-01-03T14:35:50.367Z,96711.44
2019-01-03T14:38:22.492Z,96708.67
2019-01-03T14:40:54.657Z,96708.82
2019-01-03T14:43:27.335Z,96711.31
2019-01-03T14:46:06.433Z,96721.29
2019-01-03T14:48:38.603Z,96721.19
2019-01-03T14:51:29.645Z,96723.16
2019-01-03T14:54:05.467Z,96732.45
2019-01-03T14:56:37.676Z,96728.20
2019-01-03T14:59:10.165Z,96725.55
2019-01-03T15:01:42.372Z,96722.77
2019-01-03T15:04:14.588Z,96724.54
2019-01-03T15:06:46.922Z,96721.36
2019-01-03T15:09:19.008Z,96723.66
2019-01-03T15:11:51.149Z,96725.80
2019-01-03T15:14:23.282Z,96725.07
2019-01-03T15:16:55.500Z,96720.47
2019-01-03T15:19:29.186Z,96730.24
2019-01-03T15:22:13.365Z,96730.89
2019-01-03T15:25:03.495Z,96724.88
2019-01-03T15:27:35.495Z,96726.48
2019-01-03T15:30:10.190Z,96719.73
2019-01-03T15:32:42.180Z,96716.10
2019-01-03T15:35:14.510Z,96709.86
2019-01-03T15:37:52.925Z,96715.73
2019-01-03T15:40:25.118Z,96723.02
2019-01-03T15:42:57.311Z,96727.23
2019-01-03T15:45:29.351Z,96731.37
2019-01-03T15:48:03.375Z,96727.10
2019-01-03T15:50:35.810Z,96725.55
2019-01-03T15:53:17.204Z,96716.11
2019-01-03T15:55:49.284Z,96727.45
2019-01-03T15:58:21.404Z,96722.24
2019-01-03T16:00:53.699Z,96720.34
2019-01-03T16:03:35.626Z,96711.85
2019-01-03T16:06:07.856Z,96714.94
2019-01-03T16:08:39.989Z,96722.27
2019-01-03T16:11:29.631Z,96721.76
2019-01-03T16:14:02.317Z,96709.78
2019-01-03T16:16:36.578Z,96721.19
2019-01-03T16:19:09.014Z,96716.55
2019-01-03T16:21:59.020Z,96718.18
2019-01-03T16:24:33.189Z,96713.72
2019-01-03T16:27:05.440Z,96729.78
2019-01-03T16:29:37.842Z,96719.09
2019-01-03T16:32:10.688Z,96717.14
2019-01-03T16:34:43.416Z,96710.22
2019-01-03T16:37:16.972Z,96708.80
2019-01-03T16:39:49.504Z,96711.25
2019-01-03T16:42:21.771Z,96704.30
2019-01-03T16:45:08.256Z,96695.52
2019-01-03T16:47:41.562Z,96701.65
2019-01-03T16:50:33.589Z,96692.67
2019-01-03T16:53:24.774Z,96682.22
2019-01-03T16:55:57.979Z,96688.31
2019-01-03T16:58:50.278Z,96690.80
2019-01-03T17:01:23.523Z,96698.18
2019-01-03T17:03:56.024Z,96696.03
2019-01-03T17:06:36.471Z,96693.72
2019-01-03T17:09:09.094Z,96695.44
2019-01-03T17:11:41.759Z,96694.75
2019-01-03T17:14:14.482Z,96688.00
2019-01-03T17:16:47.970Z,96695.48
2019-01-03T17:19:20.580Z,96695.77
2019-01-03T17:21:53.022Z,96689.67
2019-01-03T17:24:25.768Z,96695.11
2019-01-03T17:27:05.442Z,96690.51
2019-01-03T17:29:34.722Z,96695.06
2019-01-03T17:32:09.490Z,96695.13
2019-01-03T17:34:42.465Z,96689.05
2019-01-03T17:37:30.827Z,96694.77
2019-01-03T17:40:03.088Z,96690.95
2019-01-03T17:42:40.427Z,96692.33
2019-01-03T17:45:14.645Z,96691.20
2019-01-03T17:47:47.304Z,96692.63
2019-01-03T17:50:22.330Z,96692.27
2019-01-03T17:52:55.000Z,96695.86
2019-01-03T17:55:29.376Z,96693.77
2019-01-03T17:58:01.940Z,96696.70
2019-01-03T18:00:36.684Z,96690.44
2019-01-03T18:03:10.576Z,96695.38
2019-01-03T18:05:45.755Z,96693.89
2019-01-03T18:08:18.354Z,96695.53
2019-01-03T18:10:51.929Z,96696.67
2019-01-03T18:13:43.707Z,96695.84
2019-01-03T18:16:16.426Z,96702.42
2019-01-03T18:18:49.452Z,96699.75
2019-01-03T18:21:26.068Z,96693.45
2019-01-03T18:23:59.351Z,96697.29
2019-01-03T18:26:32.649Z,96698.62
2019-01-03T18:29:06.272Z,96697.14
2019-01-03T18:31:40.202Z,96694.79
2019-01-03T18:34:16.813Z,96694.91
2019-01-03T18:36:53.775Z,96694.88
2019-01-03T18:39:28.099Z,96697.45
2019-01-03T18:42:01.989Z,96696.45
2019-01-03T18:44:36.691Z,96699.94
2019-01-03T18:47:10.786Z,96696.62
2019-01-03T18:49:44.808Z,96691.34
2019-01-03T18:52:23.685Z,96690.31
2019-01-03T18:54:56.766Z,96685.30
2019-01-03T18:57:32.158Z,96681.45
2019-01-03T19:00:05.423Z,96687.66
2019-01-03T19:02:38.972Z,96694.16
2019-01-03T19:05:14.528Z,96688.34
2019-01-03T19:07:47.487Z,96694.28
2019-01-03T19:10:20.245Z,96689.21
2019-01-03T19:12:54.047Z,96685.22
2019-01-03T19:15:27.137Z,96685.47
2019-01-03T19:18:01.256Z,96687.11
2019-01-03T19:20:34.498Z,96684.43
2019-01-03T19:23:08.409Z,96686.29
2019-01-03T19:25:40.927Z,96685.33
2019-01-03T19:28:15.358Z,96684.45
2019-01-03T19:30:48.118Z,96680.66
2019-01-03T19:33:21.008Z,96683.52
2019-01-03T19:35:53.908Z,96683.97
2019-01-03T19:38:26.710Z,96686.39
2019-01-03T19:40:59.610Z,96689.88
2019-01-03T19:43:32.647Z,96687.96
2019-01-03T19:46:08.542Z,96684.81
2019-01-03T19:48:43.342Z,96678.59
2019-01-03T19:51:21.984Z,96687.33
2019-01-03T19:53:54.896Z,96684.75
2019-01-03T19:56:28.683Z,96686.88
2019-01-03T19:59:20.367Z,96693.55
2019-01-03T20:02:02.981Z,96694.06
2019-01-03T20:04:37.853Z,96683.30
2019-01-03T20:07:13.461Z,96691.33
2019-01-03T20:09:47.597Z,96686.07
2019-01-03T20:12:23.956Z,96685.78
2019-01-03T20:14:57.557Z,96684.78
2019-01-03T20:17:30.457Z,96686.27
2019-01-03T20:20:03.427Z,96682.23
2019-01-03T20:22:36.384Z,96687.44
2019-01-03T20:25:10.167Z,96692.40
2019-01-03T20:27:44.089Z,96691.33
2019-01-03T20:30:18.406Z,96690.08
2019-01-03T20:32:55.197Z,96688.59
2019-01-03T20:35:28.158Z,96683.05
2019-01-03T20:38:07.301Z,96684.00
2019-01-03T20:40:43.054Z,96677.59
2019-01-03T20:43:39.125Z,96674.84
2019-01-03T20:46:21.447Z,96675.06
2019-01-03T20:48:54.373Z,96672.00
2019-01-03T20:51:28.255Z,96673.13
2019-01-03T20:54:20.405Z,96666.69
2019-01-03T20:57:10.956Z,96670.01
2019-01-03T20:59:58.611Z,96662.75
2019-01-03T21:02:31.522Z,96659.73
2019-01-03T21:05:28.491Z,96668.56
2019-01-03T21:08:07.461Z,96659.96
2019-01-03T21:10:40.370Z,96668.42
2019-01-03T21:13:22.618Z,96671.14
2019-01-03T21:15:55.615Z,96676.47
2019-01-03T21:18:34.532Z,96691.00
2019-01-03T21:21:07.976Z,96689.36
2019-01-03T21:23:42.421Z,96683.38
2019-01-03T21:26:18.201Z,96675.66
2019-01-03T21:29:04.197Z,96677.55
2019-01-03T21:31:36.936Z,96668.65
2019-01-03T21:34:22.051Z,96670.32
2019-01-03T21:36:56.922Z,96670.98
2019-01-03T21:39:38.145Z,96666.17
2019-01-03T21:42:11.441Z,96668.48
2019-01-03T21:44:44.262Z,96664.88
2019-01-03T21:47:37.316Z,96662.03
2019-01-03T21:50:17.385Z,96667.37
2019-01-03T21:52:50.336Z,96657.14
2019-01-03T21:55:31.292Z,96656.48
2019-01-03T21:58:05.330Z,96658.08
2019-01-03T22:00:44.901Z,96646.06
2019-01-03T22:03:17.735Z,96643.23
2019-01-03T22:05:56.817Z,96635.92
2019-01-03T22:08:29.602Z,96640.28
2019-01-03T22:11:02.356Z,96648.59
2019-01-03T22:13:34.645Z,96647.73
2019-01-03T22:16:07.272Z,96647.12
2019-01-03T22:18:42.736Z,96646.93
2019-01-03T22:21:41.002Z,96652.42
2019-01-03T22:24:22.272Z,96640.90
2019-01-03T22:26:54.957Z,96641.85
2019-01-03T22:29:27.855Z,96640.94
2019-01-03T22:32:00.405Z,96641.86
2019-01-03T22:34:32.566Z,96640.08
2019-01-03T22:37:04.936Z,96648.77
2019-01-03T22:39:38.222Z,96643.84
2019-01-03T22:42:29.335Z,96648.16
2019-01-03T22:45:11.622Z,96656.66
2019-01-03T22:47:43.713Z,96659.45
2019-01-03T22:50:33.561Z,96662.25
2019-01-03T22:53:11.581Z,96657.84
2019-01-03T22:55:43.656Z,96655.98
2019-01-03T22:58:15.877Z,96655.30
2019-01-03T23:00:59.495Z,96657.47
2019-01-03T23:03:35.524Z,96651.54
2019-01-03T23:06:26.794Z,96647.41
2019-01-03T23:09:16.968Z,96656.73
2019-01-03T23:11:49.137Z,96654.52
2019-01-03T23:14:21.525Z,96647.75
2019-01-03T23:17:02.470Z,96650.97
2019-01-03T23:19:53.573Z,96660.00
2019-01-03T23:22:27.348Z,96669.04
2019-01-03T23:25:00.285Z,96668.98
2019-01-03T23:27:41.076Z,96668.86
2019-01-03T23:30:13.262Z,96667.42
2019-01-03T23:32:45.336Z,96668.34
2019-01-03T23:35:17.396Z,96685.56
2019-01-03T23:37:49.636Z,96699.53
2019-01-03T23:40:40.718Z,96684.81
2019-01-03T23:43:18.888Z,96674.16
2019-01-03T23:45:50.984Z,96681.52
2019-01-03T23:48:36.855Z,96687.70
2019-01-03T23:51:08.604Z,96694.67
2019-01-03T23:53:43.977Z,96686.92
2019-01-03T23:56:16.134Z,96695.52
2019-01-03T23:58:48.266Z,96700.28
